OPA Logo
 
ASOS:
At:2020.04.09 0255 UTC
Wind:330° @ 6KT
Viz: 10 mile(s)
Sky: clear
Temp: 55 F (13 C)
DewP: 26 F (-3 C)
RH: 32%
Baro: 30.14 in.
ob: KBDN 090255Z AUTO 33006KT 10SM CLR 13/M03 A3014 RMK AO2

ASOS: KRDM
At:2020.04.09 0156 UTC
Wind:340° @ 12KT
Viz: 10 mile(s)
Sky: clear
Temp: 62.1 F (16.7 C)
DewP: 27.0 F (-2.8 C)
RH: 26%
Baro: 30.13 in.
ob: KRDM 090156Z 34012KT 10SM CLR 17/M03 A3013 RMK AO2 SLP204 T01671028
Apache-SSL Logo

Valid HTML 4.01!

Central Oregon OPA Chapter

Upcoming Fly Outs


2004

June

12 Bend, OR - Flying Festival - Bend Airport

Other Fly-Out pages

Oregon Pilots Association Events Calendar

Washington Pilots Association Events

Past Fly Outs


Caldwell, ID and the Kitfox factory February 2002

XMAS Party 2001

Pasco, WA November 2001

Bend Airport Open House 2001

Flyout May 2001 to Flying M Ranch

Flyout April 2001 to Tillamook Air Museum


Web page by: gem@rellim.com